Time;durP1;ratioP1;P1;durP2;ratioP2;P2;SDS_P1;SDS_P2;PMS_P1;PMS_P2;Temp;Humidity;BMP_temperature;BMP_pressure;BME280_temperature;BME280_humidity;BME280_pressure;Samples;Min_cycle;Max_cycle;Signal;HPM_P1;HPM_P2
2022/12/05 00:01:39;;;;;;;42.17;21.17;;;;;;;;;;5012523;28;20198;-72
2022/12/05 00:04:06;;;;;;;41.27;21.23;;;;;;;;;;5012668;28;20555;-72
2022/12/05 00:06:31;;;;;;;40.97;21.40;;;;;;;;;;5031148;28;20181;-72
2022/12/05 00:08:57;;;;;;;42.67;22.43;;;;;;;;;;5031028;28;20171;-72
2022/12/05 00:11:24;;;;;;;42.20;21.43;;;;;;;;;;5029951;28;20210;-71
2022/12/05 00:13:50;;;;;;;43.20;20.20;;;;;;;;;;5031570;28;20174;-72
2022/12/05 00:16:16;;;;;;;38.83;20.97;;;;;;;;;;5030198;28;20253;-72
2022/12/05 00:18:42;;;;;;;38.63;19.63;;;;;;;;;;5031265;28;20190;-72
2022/12/05 00:21:11;;;;;;;42.33;21.87;;;;;;;;;;5027273;28;20298;-72
2022/12/05 00:23:36;;;;;;;38.37;19.23;;;;;;;;;;5022635;28;20179;-72
2022/12/05 00:26:02;;;;;;;38.33;19.90;;;;;;;;;;5015953;28;20648;-72
2022/12/05 00:28:28;;;;;;;42.33;20.27;;;;;;;;;;5029790;28;20528;-72
2022/12/05 00:30:53;;;;;;;38.97;20.90;;;;;;;;;;5027870;28;20297;-72
2022/12/05 00:33:18;;;;;;;34.83;17.80;;;;;;;;;;5031535;28;20190;-71
2022/12/05 00:35:43;;;;;;;37.67;20.00;;;;;;;;;;5025918;28;20177;-72
2022/12/05 00:38:08;;;;;;;37.33;19.67;;;;;;;;;;5031763;28;20232;-72
2022/12/05 00:40:35;;;;;;;37.73;18.77;;;;;;;;;;5030022;28;20766;-72
2022/12/05 00:43:00;;;;;;;41.53;19.90;;;;;;;;;;5028674;28;20748;-72
2022/12/05 00:45:25;;;;;;;37.87;20.17;;;;;;;;;;5030684;28;20178;-72
2022/12/05 00:47:50;;;;;;;35.37;18.73;;;;;;;;;;5032348;28;20170;-72
2022/12/05 00:50:16;;;;;;;36.90;19.17;;;;;;;;;;5029402;28;20224;-72
2022/12/05 00:52:41;;;;;;;36.30;19.93;;;;;;;;;;5030191;28;20554;-72
2022/12/05 00:55:06;;;;;;;43.53;20.73;;;;;;;;;;5031509;28;20664;-72
2022/12/05 00:57:31;;;;;;;36.27;18.27;;;;;;;;;;5031149;28;20189;-72
2022/12/05 00:59:56;;;;;;;36.80;18.83;;;;;;;;;;5030951;28;20284;-72
2022/12/05 01:02:22;;;;;;;38.60;20.47;;;;;;;;;;5013082;28;20178;-72
2022/12/05 01:04:47;;;;;;;38.07;18.97;;;;;;;;;;5030874;28;20178;-72
2022/12/05 01:07:12;;;;;;;42.97;21.37;;;;;;;;;;5031183;28;20193;-72
2022/12/05 01:09:37;;;;;;;38.77;19.87;;;;;;;;;;5030945;28;20605;-72
2022/12/05 01:12:02;;;;;;;37.80;18.77;;;;;;;;;;5030300;28;20674;-72
2022/12/05 01:14:28;;;;;;;37.87;20.93;;;;;;;;;;5030925;28;20240;-72
2022/12/05 01:16:54;;;;;;;43.13;20.27;;;;;;;;;;5031285;28;20170;-72
2022/12/05 01:19:21;;;;;;;40.87;19.73;;;;;;;;;;5013730;28;20248;-72
2022/12/05 01:21:46;;;;;;;41.90;19.57;;;;;;;;;;5033786;28;20194;-72
2022/12/05 01:24:12;;;;;;;39.80;20.33;;;;;;;;;;5035216;28;20174;-72
2022/12/05 01:26:38;;;;;;;39.67;20.50;;;;;;;;;;5016825;28;20181;-72
2022/12/05 01:29:04;;;;;;;40.13;20.03;;;;;;;;;;5033959;28;20182;-72
2022/12/05 01:31:30;;;;;;;40.50;20.23;;;;;;;;;;5033880;28;20608;-72
2022/12/05 01:33:56;;;;;;;39.60;20.23;;;;;;;;;;5034729;28;20178;-72
2022/12/05 01:36:22;;;;;;;35.50;19.23;;;;;;;;;;5034582;28;20178;-72
2022/12/05 01:38:47;;;;;;;40.40;20.70;;;;;;;;;;5034722;28;20185;-72
2022/12/05 01:41:14;;;;;;;41.20;19.33;;;;;;;;;;5033776;28;20217;-72
2022/12/05 01:43:54;;;;;;;38.37;20.73;;;;;;;;;;5033130;28;20178;-72
2022/12/05 01:46:20;;;;;;;40.50;19.80;;;;;;;;;;5034167;28;20261;-72
2022/12/05 01:48:45;;;;;;;41.07;20.37;;;;;;;;;;5034675;28;20240;-72
2022/12/05 01:51:11;;;;;;;37.20;19.53;;;;;;;;;;5033294;28;20203;-72
2022/12/05 01:53:36;;;;;;;38.87;20.53;;;;;;;;;;5031837;28;20197;-72
2022/12/05 01:56:02;;;;;;;38.97;19.90;;;;;;;;;;5038908;28;20260;-72
2022/12/05 01:58:30;;;;;;;41.47;19.73;;;;;;;;;;5030600;28;20178;-72
2022/12/05 02:00:55;;;;;;;39.70;19.50;;;;;;;;;;5031701;28;20210;-72
2022/12/05 02:03:20;;;;;;;40.23;19.37;;;;;;;;;;5033982;28;20648;-72
2022/12/05 02:05:50;;;;;;;40.37;19.47;;;;;;;;;;5034439;28;20686;-72
2022/12/05 02:08:15;;;;;;;36.50;19.63;;;;;;;;;;5033990;28;20721;-72
2022/12/05 02:10:42;;;;;;;40.67;19.57;;;;;;;;;;5031977;28;20210;-72
2022/12/05 02:13:20;;;;;;;41.80;20.87;;;;;;;;;;5033320;28;20182;-72
2022/12/05 02:15:51;;;;;;;39.17;18.83;;;;;;;;;;5034142;28;20178;-72
2022/12/05 02:18:19;;;;;;;40.80;20.07;;;;;;;;;;5032468;28;20257;-73
2022/12/05 02:20:59;;;;;;;41.50;20.40;;;;;;;;;;5029557;28;20213;-72
2022/12/05 02:23:43;;;;;;;39.27;20.03;;;;;;;;;;5034237;28;20178;-72
2022/12/05 02:26:14;;;;;;;39.13;19.40;;;;;;;;;;5030677;28;20185;-73
2022/12/05 02:28:39;;;;;;;39.77;19.00;;;;;;;;;;5032725;28;20715;-73
2022/12/05 02:31:15;;;;;;;40.60;19.17;;;;;;;;;;5032043;28;20198;-72
2022/12/05 02:33:54;;;;;;;39.83;18.57;;;;;;;;;;5033384;28;20174;-72
2022/12/05 02:36:19;;;;;;;43.73;20.67;;;;;;;;;;5017270;28;20174;-73
2022/12/05 02:38:56;;;;;;;39.33;19.37;;;;;;;;;;5033402;28;20173;-73
2022/12/05 02:41:39;;;;;;;36.27;19.10;;;;;;;;;;5028781;28;20209;-72
2022/12/05 02:44:05;;;;;;;36.97;19.73;;;;;;;;;;5012935;28;20186;-72
2022/12/05 02:46:32;;;;;;;38.47;20.37;;;;;;;;;;5033441;28;20532;-72
2022/12/05 02:48:59;;;;;;;40.33;19.27;;;;;;;;;;5015201;28;20178;-72
2022/12/05 02:51:28;;;;;;;37.60;19.33;;;;;;;;;;5014377;28;20556;-72
2022/12/05 02:53:56;;;;;;;37.53;20.00;;;;;;;;;;5031633;28;20686;-73
2022/12/05 02:56:21;;;;;;;36.57;20.63;;;;;;;;;;5031523;28;20178;-72
2022/12/05 02:58:51;;;;;;;37.50;19.93;;;;;;;;;;5032949;28;20205;-72
2022/12/05 03:01:17;;;;;;;34.77;18.63;;;;;;;;;;5031852;28;20289;-72
2022/12/05 03:03:43;;;;;;;36.23;18.27;;;;;;;;;;5032810;28;20213;-72
2022/12/05 03:06:12;;;;;;;40.23;19.63;;;;;;;;;;5032946;28;20701;-72
2022/12/05 03:08:40;;;;;;;35.20;18.43;;;;;;;;;;5033023;28;20312;-73
2022/12/05 03:11:06;;;;;;;36.50;19.67;;;;;;;;;;5032475;28;20195;-72
2022/12/05 03:13:43;;;;;;;39.03;19.93;;;;;;;;;;5033486;28;20712;-72
2022/12/05 03:16:15;;;;;;;40.53;19.57;;;;;;;;;;5032475;28;20422;-73
2022/12/05 03:18:44;;;;;;;38.53;18.47;;;;;;;;;;5032845;28;20194;-73
2022/12/05 03:21:16;;;;;;;39.97;19.43;;;;;;;;;;5029172;28;20251;-73
2022/12/05 03:23:45;;;;;;;38.83;19.53;;;;;;;;;;5030443;28;20615;-73
2022/12/05 03:26:29;;;;;;;42.20;20.27;;;;;;;;;;5026713;28;20378;-73
2022/12/05 03:28:57;;;;;;;37.33;19.60;;;;;;;;;;5032185;28;20170;-73
2022/12/05 03:31:51;;;;;;;40.37;20.70;;;;;;;;;;5030764;28;20211;-72
2022/12/05 03:34:18;;;;;;;35.90;19.27;;;;;;;;;;5016570;28;20190;-72
2022/12/05 03:36:45;;;;;;;37.37;18.60;;;;;;;;;;5027075;28;20178;-72
2022/12/05 03:39:16;;;;;;;34.97;18.97;;;;;;;;;;5032213;28;20244;-73
2022/12/05 03:41:44;;;;;;;36.57;17.93;;;;;;;;;;5031324;28;20299;-71
2022/12/05 03:44:29;;;;;;;33.10;18.47;;;;;;;;;;5030558;28;20679;-71
2022/12/05 03:47:05;;;;;;;44.77;21.00;;;;;;;;;;5030267;28;20205;-72
2022/12/05 03:49:36;;;;;;;38.93;20.33;;;;;;;;;;5032188;28;20192;-71
2022/12/05 03:52:08;;;;;;;42.37;21.17;;;;;;;;;;5025856;28;20660;-72
2022/12/05 03:54:53;;;;;;;39.33;19.23;;;;;;;;;;5031055;28;20186;-73
2022/12/05 03:57:25;;;;;;;41.10;20.00;;;;;;;;;;5028146;28;20289;-72
2022/12/05 04:00:09;;;;;;;35.37;18.67;;;;;;;;;;5031751;28;20240;-72
2022/12/05 04:02:44;;;;;;;35.47;18.70;;;;;;;;;;5013428;28;20178;-72
2022/12/05 04:05:12;;;;;;;40.23;19.53;;;;;;;;;;5028241;28;20189;-71
2022/12/05 04:07:38;;;;;;;33.73;19.07;;;;;;;;;;5014085;28;20193;-71
2022/12/05 04:10:24;;;;;;;36.37;17.63;;;;;;;;;;5030729;28;20209;-71
2022/12/05 04:12:51;;;;;;;33.90;17.57;;;;;;;;;;5012026;28;20179;-71
2022/12/05 04:15:19;;;;;;;35.53;18.50;;;;;;;;;;5032150;28;20182;-72
2022/12/05 04:17:44;;;;;;;35.70;19.10;;;;;;;;;;5029651;28;20228;-75
2022/12/05 04:22:56;;;;;;;35.80;18.40;;;;;;;;;;5031004;28;20591;-72
2022/12/05 04:25:32;;;;;;;37.53;18.37;;;;;;;;;;5030822;28;20269;-72
2022/12/05 04:28:00;;;;;;;37.07;19.00;;;;;;;;;;5011151;28;20198;-72
2022/12/05 04:30:31;;;;;;;36.90;19.20;;;;;;;;;;5013531;28;20240;-72
2022/12/05 04:32:56;;;;;;;40.90;19.13;;;;;;;;;;5032108;28;20178;-72
2022/12/05 04:35:26;;;;;;;35.17;18.03;;;;;;;;;;5031115;28;20189;-71
2022/12/05 04:37:54;;;;;;;33.73;18.17;;;;;;;;;;5034375;28;20182;-72
2022/12/05 04:40:26;;;;;;;37.27;18.87;;;;;;;;;;5029796;28;20214;-72
2022/12/05 04:42:53;;;;;;;35.47;17.93;;;;;;;;;;5028470;28;20586;-72
2022/12/05 04:45:20;;;;;;;33.27;17.60;;;;;;;;;;5032198;28;20178;-72
2022/12/05 04:47:48;;;;;;;34.37;18.27;;;;;;;;;;5029325;28;20186;-72
2022/12/05 04:50:15;;;;;;;37.33;17.87;;;;;;;;;;5031420;28;20201;-72
2022/12/05 04:52:41;;;;;;;37.47;18.40;;;;;;;;;;5037265;28;20269;-72
2022/12/05 04:55:09;;;;;;;34.30;17.03;;;;;;;;;;5027337;28;20186;-72
2022/12/05 04:57:48;;;;;;;31.77;17.33;;;;;;;;;;5031547;28;20269;-72
2022/12/05 05:00:13;;;;;;;32.47;17.90;;;;;;;;;;5030164;28;20205;-72
2022/12/05 05:02:54;;;;;;;34.43;17.60;;;;;;;;;;5030553;28;20457;-72
2022/12/05 05:05:21;;;;;;;35.73;17.20;;;;;;;;;;5013217;28;20178;-72
2022/12/05 05:07:47;;;;;;;33.33;18.13;;;;;;;;;;5031656;28;20174;-72
2022/12/05 05:10:15;;;;;;;33.60;17.70;;;;;;;;;;5033391;28;20289;-72
2022/12/05 05:12:40;;;;;;;31.03;16.53;;;;;;;;;;5030449;28;20220;-72
2022/12/05 05:15:05;;;;;;;35.70;17.57;;;;;;;;;;5036851;28;20186;-72
2022/12/05 05:17:30;;;;;;;32.20;17.43;;;;;;;;;;5015506;28;20269;-72
2022/12/05 05:20:22;;;;;;;28.47;16.73;;;;;;;;;;5012952;28;20804;-72
2022/12/05 05:22:41;;;;;;;33.90;16.47;;;;;;;;;;5029602;28;20620;-72
2022/12/05 05:25:06;;;;;;;33.60;17.13;;;;;;;;;;5031562;28;20261;-72
2022/12/05 05:27:31;;;;;;;32.20;17.27;;;;;;;;;;5012827;28;20174;-71
2022/12/05 05:29:56;;;;;;;32.27;15.63;;;;;;;;;;5031355;28;20267;-72
2022/12/05 05:32:22;;;;;;;32.73;17.10;;;;;;;;;;5030739;28;20589;-72
2022/12/05 05:34:47;;;;;;;30.67;17.00;;;;;;;;;;5030511;28;20194;-72
2022/12/05 05:37:12;;;;;;;33.20;17.40;;;;;;;;;;5034433;28;20320;-72
2022/12/05 05:39:37;;;;;;;32.17;16.47;;;;;;;;;;5016065;28;20613;-72
2022/12/05 05:42:02;;;;;;;33.77;17.57;;;;;;;;;;5029560;28;20214;-72
2022/12/05 05:44:28;;;;;;;33.43;16.47;;;;;;;;;;5028588;28;20186;-72
2022/12/05 05:46:53;;;;;;;30.90;15.87;;;;;;;;;;5030977;28;20216;-72
2022/12/05 05:49:18;;;;;;;32.33;16.67;;;;;;;;;;5032220;28;20182;-72
2022/12/05 05:51:44;;;;;;;34.50;17.97;;;;;;;;;;5028347;28;20202;-72
2022/12/05 05:54:09;;;;;;;35.27;17.77;;;;;;;;;;5029443;28;20486;-72
2022/12/05 05:56:34;;;;;;;33.37;17.90;;;;;;;;;;5035575;28;20636;-72
2022/12/05 05:59:02;;;;;;;34.03;17.77;;;;;;;;;;5032385;28;20187;-72
2022/12/05 06:01:27;;;;;;;33.73;17.93;;;;;;;;;;5011634;28;20680;-72
2022/12/05 06:03:53;;;;;;;35.53;18.27;;;;;;;;;;5030992;28;20253;-72
2022/12/05 06:06:19;;;;;;;38.13;16.80;;;;;;;;;;5012650;28;20178;-71
2022/12/05 06:08:44;;;;;;;37.63;20.40;;;;;;;;;;5016520;28;20171;-72
2022/12/05 06:11:14;;;;;;;33.73;17.00;;;;;;;;;;5019853;28;20206;-72
2022/12/05 06:13:39;;;;;;;34.70;18.13;;;;;;;;;;5035155;28;20221;-72
2022/12/05 06:16:05;;;;;;;36.57;18.70;;;;;;;;;;5028991;28;20205;-72
2022/12/05 06:18:31;;;;;;;36.73;17.57;;;;;;;;;;5040605;28;20220;-72
2022/12/05 06:20:56;;;;;;;34.67;16.97;;;;;;;;;;5033861;28;20276;-72
2022/12/05 06:23:22;;;;;;;36.80;18.30;;;;;;;;;;5036477;28;20185;-73
2022/12/05 06:25:48;;;;;;;34.77;17.67;;;;;;;;;;5015262;28;20178;-72
2022/12/05 06:28:13;;;;;;;32.73;18.07;;;;;;;;;;5036816;28;20201;-73
2022/12/05 06:30:39;;;;;;;33.73;17.87;;;;;;;;;;5015840;28;20206;-72
2022/12/05 06:33:04;;;;;;;34.00;18.27;;;;;;;;;;5034165;28;20181;-72
2022/12/05 06:35:29;;;;;;;34.80;18.03;;;;;;;;;;5032017;28;20182;-72
2022/12/05 06:37:54;;;;;;;33.47;18.37;;;;;;;;;;5032682;28;20309;-72
2022/12/05 06:40:20;;;;;;;37.50;18.23;;;;;;;;;;5034068;28;20271;-72
2022/12/05 06:42:45;;;;;;;34.93;17.77;;;;;;;;;;5014944;28;20206;-73
2022/12/05 06:45:10;;;;;;;35.03;17.33;;;;;;;;;;5032849;28;20562;-74
2022/12/05 06:47:35;;;;;;;37.37;19.07;;;;;;;;;;5033688;28;20186;-72
2022/12/05 06:50:00;;;;;;;38.17;19.77;;;;;;;;;;5015701;28;20221;-72
2022/12/05 06:52:26;;;;;;;36.57;17.33;;;;;;;;;;5032040;28;20181;-72
2022/12/05 06:54:51;;;;;;;36.10;17.67;;;;;;;;;;5030074;28;20186;-73
2022/12/05 06:57:16;;;;;;;33.33;17.17;;;;;;;;;;5033445;28;20231;-72
2022/12/05 06:59:41;;;;;;;33.63;17.47;;;;;;;;;;5033093;28;20316;-72
2022/12/05 07:02:07;;;;;;;35.20;17.17;;;;;;;;;;5030656;28;20170;-73
2022/12/05 07:04:33;;;;;;;36.60;17.07;;;;;;;;;;5031947;28;20655;-72
2022/12/05 07:07:00;;;;;;;33.80;17.23;;;;;;;;;;5013499;28;20166;-72
2022/12/05 07:09:44;;;;;;;37.93;17.13;;;;;;;;;;5032778;28;20191;-72
2022/12/05 07:12:10;;;;;;;34.47;16.83;;;;;;;;;;5031507;28;20232;-72
2022/12/05 07:14:35;;;;;;;32.83;18.37;;;;;;;;;;5031765;28;20190;-72
2022/12/05 07:17:01;;;;;;;34.10;17.10;;;;;;;;;;5027401;28;20190;-72
2022/12/05 07:19:26;;;;;;;36.10;18.10;;;;;;;;;;5032174;28;20696;-72
2022/12/05 07:21:51;;;;;;;33.20;16.60;;;;;;;;;;5031944;28;20277;-72
2022/12/05 07:24:16;;;;;;;34.97;18.73;;;;;;;;;;5031577;28;20178;-71
2022/12/05 07:26:41;;;;;;;33.07;16.97;;;;;;;;;;5033164;28;20548;-72
2022/12/05 07:29:07;;;;;;;31.93;16.73;;;;;;;;;;5032402;28;20186;-72
2022/12/05 07:31:32;;;;;;;37.57;17.37;;;;;;;;;;5031603;28;20286;-71
2022/12/05 07:33:58;;;;;;;33.00;17.23;;;;;;;;;;5015044;28;20641;-71
2022/12/05 07:36:23;;;;;;;34.57;16.50;;;;;;;;;;5032466;28;20684;-72
2022/12/05 07:38:53;;;;;;;29.87;17.10;;;;;;;;;;5032371;28;20181;-72
2022/12/05 07:41:20;;;;;;;33.83;16.60;;;;;;;;;;5036052;28;21068;-74
2022/12/05 07:43:45;;;;;;;28.97;15.90;;;;;;;;;;5033862;28;20202;-75
2022/12/05 07:46:11;;;;;;;35.63;16.73;;;;;;;;;;5015953;28;20217;-71
2022/12/05 07:48:36;;;;;;;33.23;17.67;;;;;;;;;;5032583;28;20644;-72
2022/12/05 07:51:05;;;;;;;27.77;16.00;;;;;;;;;;5015600;28;20212;-72
2022/12/05 07:53:31;;;;;;;30.00;15.37;;;;;;;;;;5030867;28;20186;-72
2022/12/05 07:55:59;;;;;;;27.77;14.90;;;;;;;;;;5029748;28;20589;-71
2022/12/05 07:58:26;;;;;;;31.00;15.43;;;;;;;;;;5031422;28;20289;-70
2022/12/05 08:00:51;;;;;;;33.50;15.83;;;;;;;;;;5024368;28;20210;-70
2022/12/05 08:03:17;;;;;;;29.53;15.23;;;;;;;;;;5032269;28;20170;-71
2022/12/05 08:05:42;;;;;;;28.20;15.23;;;;;;;;;;5014429;28;20182;-71
2022/12/05 08:08:07;;;;;;;30.13;13.93;;;;;;;;;;5031000;28;20189;-71
2022/12/05 08:10:33;;;;;;;30.57;15.50;;;;;;;;;;5014104;28;20202;-71
2022/12/05 08:12:58;;;;;;;26.73;14.70;;;;;;;;;;5031045;28;20181;-71
2022/12/05 08:15:23;;;;;;;27.27;15.00;;;;;;;;;;5032149;28;20182;-71
2022/12/05 08:17:48;;;;;;;24.13;14.00;;;;;;;;;;5031963;28;20174;-72
2022/12/05 08:20:13;;;;;;;25.20;13.70;;;;;;;;;;5031848;28;20228;-71
2022/12/05 08:22:38;;;;;;;24.87;14.17;;;;;;;;;;5013256;28;20261;-71
2022/12/05 08:25:04;;;;;;;26.40;14.17;;;;;;;;;;5014149;28;20174;-71
2022/12/05 08:27:29;;;;;;;30.77;14.77;;;;;;;;;;5031448;28;20182;-72
2022/12/05 08:29:54;;;;;;;24.97;13.40;;;;;;;;;;5031386;28;20170;-72
2022/12/05 08:32:19;;;;;;;21.10;12.60;;;;;;;;;;5030827;28;20186;-71
2022/12/05 08:34:45;;;;;;;20.40;12.83;;;;;;;;;;5032018;28;20202;-71
2022/12/05 08:37:10;;;;;;;24.13;13.70;;;;;;;;;;5030646;28;20190;-71
2022/12/05 08:39:35;;;;;;;23.20;12.70;;;;;;;;;;5032087;28;20577;-71
2022/12/05 08:42:00;;;;;;;26.73;13.50;;;;;;;;;;5030782;28;20205;-71
2022/12/05 08:44:26;;;;;;;20.43;13.50;;;;;;;;;;5031834;28;20586;-71
2022/12/05 08:46:51;;;;;;;21.23;12.40;;;;;;;;;;5031992;28;20166;-72
2022/12/05 08:49:16;;;;;;;22.53;13.43;;;;;;;;;;5031255;28;20556;-71
2022/12/05 08:51:42;;;;;;;24.20;13.33;;;;;;;;;;5030795;28;20695;-71
2022/12/05 08:54:07;;;;;;;23.37;13.27;;;;;;;;;;5031984;28;20556;-71
2022/12/05 08:56:33;;;;;;;20.57;13.47;;;;;;;;;;5031579;28;20248;-71
2022/12/05 08:58:58;;;;;;;19.53;12.33;;;;;;;;;;5031879;28;20656;-71
2022/12/05 09:01:30;;;;;;;19.57;11.97;;;;;;;;;;5030677;28;20221;-72
2022/12/05 09:03:55;;;;;;;20.20;12.07;;;;;;;;;;5030787;28;20167;-72
2022/12/05 09:06:22;;;;;;;17.93;12.40;;;;;;;;;;5029994;28;20323;-72
2022/12/05 09:08:47;;;;;;;22.60;12.23;;;;;;;;;;5030911;28;20591;-72
2022/12/05 09:11:14;;;;;;;18.17;10.90;;;;;;;;;;5028344;28;20296;-72
2022/12/05 09:13:39;;;;;;;21.70;11.60;;;;;;;;;;5031140;28;20193;-73
2022/12/05 09:16:09;;;;;;;18.23;11.47;;;;;;;;;;5031605;28;20547;-72
2022/12/05 09:18:34;;;;;;;18.00;11.57;;;;;;;;;;5031630;28;20220;-72
2022/12/05 09:21:10;;;;;;;17.93;11.43;;;;;;;;;;5029703;28;20218;-72
2022/12/05 09:23:36;;;;;;;21.97;11.43;;;;;;;;;;5030599;28;20185;-72
2022/12/05 09:26:01;;;;;;;18.67;11.70;;;;;;;;;;5031815;28;20541;-72
2022/12/05 09:28:27;;;;;;;17.53;11.77;;;;;;;;;;5031633;28;20178;-72
2022/12/05 09:30:56;;;;;;;16.20;10.70;;;;;;;;;;5030664;28;20198;-72
2022/12/05 09:33:22;;;;;;;14.67;9.47;;;;;;;;;;5031946;28;20227;-72
2022/12/05 09:35:47;;;;;;;18.50;11.37;;;;;;;;;;5030962;28;20186;-72
2022/12/05 09:38:12;;;;;;;18.67;11.03;;;;;;;;;;5013767;28;20186;-71
2022/12/05 09:40:40;;;;;;;20.67;12.80;;;;;;;;;;5031351;28;20596;-72
2022/12/05 09:43:07;;;;;;;16.13;10.27;;;;;;;;;;5035124;28;20180;-72
2022/12/05 09:45:38;;;;;;;16.27;9.37;;;;;;;;;;5035138;28;20189;-72
2022/12/05 09:48:05;;;;;;;14.53;9.47;;;;;;;;;;5032163;28;20175;-71
2022/12/05 09:50:33;;;;;;;14.67;9.40;;;;;;;;;;5034400;28;20233;-73
2022/12/05 09:52:59;;;;;;;14.90;9.57;;;;;;;;;;5034508;28;20178;-72
2022/12/05 09:55:25;;;;;;;13.50;9.20;;;;;;;;;;5031203;28;20273;-72
2022/12/05 09:57:54;;;;;;;14.97;9.17;;;;;;;;;;5035532;28;20177;-72
2022/12/05 10:00:20;;;;;;;12.87;8.30;;;;;;;;;;5034935;28;20221;-72
2022/12/05 10:02:45;;;;;;;13.00;7.90;;;;;;;;;;5032262;28;20171;-75
2022/12/05 10:05:15;;;;;;;13.13;8.47;;;;;;;;;;5031716;28;20196;-72
2022/12/05 10:07:46;;;;;;;11.67;8.30;;;;;;;;;;5033179;28;20648;-72
2022/12/05 10:10:24;;;;;;;12.10;8.03;;;;;;;;;;5033862;28;21243;-71
2022/12/05 10:13:19;;;;;;;12.17;8.17;;;;;;;;;;5030929;28;20174;-72
2022/12/05 10:15:49;;;;;;;15.40;8.90;;;;;;;;;;5001742;28;20214;-73
2022/12/05 10:18:27;;;;;;;12.37;8.77;;;;;;;;;;5033558;28;20208;-73
2022/12/05 10:20:56;;;;;;;12.00;8.10;;;;;;;;;;5031411;28;20212;-72
2022/12/05 10:23:23;;;;;;;11.53;7.83;;;;;;;;;;5016085;28;20178;-74
2022/12/05 10:25:53;;;;;;;10.63;7.10;;;;;;;;;;5034233;28;20265;-72
2022/12/05 10:28:29;;;;;;;10.03;8.00;;;;;;;;;;5033564;28;20189;-71
2022/12/05 10:30:56;;;;;;;12.17;8.23;;;;;;;;;;5033601;28;20293;-71
2022/12/05 10:33:22;;;;;;;11.67;8.53;;;;;;;;;;5034181;28;20193;-71
2022/12/05 10:35:52;;;;;;;9.20;7.27;;;;;;;;;;5032448;28;20193;-72
2022/12/05 10:38:25;;;;;;;12.80;8.43;;;;;;;;;;5032615;28;20277;-72
2022/12/05 10:40:51;;;;;;;11.53;8.00;;;;;;;;;;5031978;28;20213;-71
2022/12/05 10:43:22;;;;;;;11.57;8.50;;;;;;;;;;5033643;28;20178;-71
2022/12/05 10:45:48;;;;;;;11.97;7.63;;;;;;;;;;5029562;28;20167;-72
2022/12/05 10:48:15;;;;;;;9.37;7.10;;;;;;;;;;5034115;28;20174;-71
2022/12/05 10:50:41;;;;;;;9.47;6.93;;;;;;;;;;5030298;28;20332;-71
2022/12/05 10:53:07;;;;;;;9.37;6.77;;;;;;;;;;5026635;28;20663;-71
2022/12/05 10:55:36;;;;;;;11.03;7.47;;;;;;;;;;5031578;28;20753;-71
2022/12/05 10:58:15;;;;;;;10.00;6.77;;;;;;;;;;5033918;28;20195;-71
2022/12/05 11:00:45;;;;;;;11.30;7.40;;;;;;;;;;5016621;28;20209;-71
2022/12/05 11:03:39;;;;;;;8.50;6.27;;;;;;;;;;5031673;28;20201;-71
2022/12/05 11:06:15;;;;;;;9.60;6.07;;;;;;;;;;5020634;28;20190;-71
2022/12/05 11:08:41;;;;;;;7.00;5.10;;;;;;;;;;5033390;28;20265;-71
2022/12/05 11:11:09;;;;;;;8.13;5.97;;;;;;;;;;5032840;28;20352;-71
2022/12/05 11:13:34;;;;;;;9.47;5.70;;;;;;;;;;5032318;28;20186;-71
2022/12/05 11:16:00;;;;;;;7.40;5.23;;;;;;;;;;5033097;28;20781;-71
2022/12/05 11:18:30;;;;;;;7.60;4.80;;;;;;;;;;5033443;28;20174;-71
2022/12/05 11:20:56;;;;;;;6.93;5.70;;;;;;;;;;5032356;28;20198;-71
2022/12/05 11:23:28;;;;;;;7.10;4.93;;;;;;;;;;5013785;28;20206;-71
2022/12/05 11:25:54;;;;;;;7.40;5.50;;;;;;;;;;5032123;28;20183;-71
2022/12/05 11:28:20;;;;;;;5.90;4.53;;;;;;;;;;5033229;28;20224;-71
2022/12/05 11:30:55;;;;;;;7.67;4.97;;;;;;;;;;5032646;28;20190;-71
2022/12/05 11:33:22;;;;;;;6.60;5.07;;;;;;;;;;5031149;28;20246;-71
2022/12/05 11:35:49;;;;;;;6.03;4.10;;;;;;;;;;5032002;28;20190;-71
2022/12/05 11:38:15;;;;;;;6.63;4.17;;;;;;;;;;5033098;28;20206;-71
2022/12/05 11:40:53;;;;;;;5.83;4.10;;;;;;;;;;5032028;28;20202;-71
2022/12/05 11:43:22;;;;;;;5.30;4.27;;;;;;;;;;5014927;28;20226;-72
2022/12/05 11:45:59;;;;;;;5.77;4.13;;;;;;;;;;5032586;28;20249;-71
2022/12/05 11:48:40;;;;;;;6.97;4.63;;;;;;;;;;5030259;28;20628;-71
2022/12/05 11:51:34;;;;;;;6.20;4.27;;;;;;;;;;5014003;28;20214;-72
2022/12/05 11:53:59;;;;;;;5.03;3.63;;;;;;;;;;4973385;28;20177;-72
2022/12/05 11:56:25;;;;;;;6.17;4.33;;;;;;;;;;5015051;28;20189;-72
2022/12/05 11:59:02;;;;;;;5.57;3.80;;;;;;;;;;5032646;28;20265;-74
2022/12/05 12:01:35;;;;;;;6.73;4.43;;;;;;;;;;5031846;28;20556;-73
2022/12/05 12:04:00;;;;;;;5.97;3.93;;;;;;;;;;5028817;28;20598;-72
2022/12/05 12:06:41;;;;;;;5.90;4.13;;;;;;;;;;5031226;28;20174;-72
2022/12/05 12:09:27;;;;;;;6.17;4.33;;;;;;;;;;5029180;28;20181;-71
2022/12/05 12:11:52;;;;;;;5.73;4.17;;;;;;;;;;5025035;28;20198;-71
2022/12/05 12:14:29;;;;;;;6.07;4.23;;;;;;;;;;5032409;28;20205;-73
2022/12/05 12:17:06;;;;;;;5.17;4.13;;;;;;;;;;5031102;28;20170;-71
2022/12/05 12:19:40;;;;;;;5.50;4.60;;;;;;;;;;5031075;28;20691;-71
2022/12/05 12:22:24;;;;;;;7.17;4.80;;;;;;;;;;5031296;28;20174;-73
2022/12/05 12:25:03;;;;;;;6.20;4.30;;;;;;;;;;5025218;28;20253;-71
2022/12/05 12:27:39;;;;;;;5.70;4.60;;;;;;;;;;5014320;28;20174;-72
2022/12/05 12:30:16;;;;;;;5.87;4.23;;;;;;;;;;5013934;28;20582;-71
2022/12/05 12:33:00;;;;;;;6.80;4.63;;;;;;;;;;5031744;28;20178;-72
2022/12/05 12:35:27;;;;;;;7.00;4.50;;;;;;;;;;5032092;28;20175;-71
2022/12/05 12:37:52;;;;;;;6.03;4.07;;;;;;;;;;5032279;28;20179;-72
2022/12/05 12:40:20;;;;;;;5.20;4.37;;;;;;;;;;5030643;28;20260;-72
2022/12/05 12:42:52;;;;;;;6.30;4.30;;;;;;;;;;5031254;28;20174;-72
2022/12/05 12:45:18;;;;;;;7.87;4.17;;;;;;;;;;5031563;28;20170;-73
2022/12/05 12:47:55;;;;;;;5.93;3.70;;;;;;;;;;5031704;28;20178;-72
2022/12/05 12:50:22;;;;;;;5.47;4.10;;;;;;;;;;5027459;28;20201;-71
2022/12/05 12:53:06;;;;;;;5.17;3.97;;;;;;;;;;5030171;28;20185;-71
2022/12/05 12:55:37;;;;;;;7.10;4.53;;;;;;;;;;5031361;28;20189;-71
2022/12/05 12:58:12;;;;;;;5.67;4.23;;;;;;;;;;5029655;28;20178;-71
2022/12/05 13:00:43;;;;;;;5.03;3.97;;;;;;;;;;5030794;28;20241;-71
2022/12/05 13:03:12;;;;;;;8.03;4.30;;;;;;;;;;5031721;28;20171;-71
2022/12/05 13:05:40;;;;;;;7.03;4.50;;;;;;;;;;5031609;28;20217;-71
2022/12/05 13:08:11;;;;;;;6.80;4.60;;;;;;;;;;5031452;28;20535;-71
2022/12/05 13:10:39;;;;;;;7.43;4.33;;;;;;;;;;5013752;28;20210;-70
2022/12/05 13:13:05;;;;;;;6.70;4.53;;;;;;;;;;5031407;28;20523;-71
2022/12/05 13:15:39;;;;;;;5.40;4.13;;;;;;;;;;5032996;28;20181;-71
2022/12/05 13:18:06;;;;;;;6.70;4.00;;;;;;;;;;5036250;28;20626;-70
2022/12/05 13:20:32;;;;;;;6.13;4.17;;;;;;;;;;5035415;28;20288;-70
2022/12/05 13:22:58;;;;;;;4.63;3.67;;;;;;;;;;5035000;28;20170;-71
2022/12/05 13:25:27;;;;;;;5.03;3.20;;;;;;;;;;5034359;28;20189;-71
2022/12/05 13:28:00;;;;;;;6.80;3.60;;;;;;;;;;5017579;28;20170;-71
2022/12/05 13:30:29;;;;;;;7.77;3.60;;;;;;;;;;5035122;28;20692;-71
2022/12/05 13:33:00;;;;;;;8.27;4.00;;;;;;;;;;5034764;28;20175;-71
2022/12/05 13:43:57;;;;;;;6.67;3.50;;;;;;;;;;5029596;28;20229;-71
2022/12/05 13:46:27;;;;;;;6.33;3.37;;;;;;;;;;5036126;28;20170;-71
2022/12/05 13:48:59;;;;;;;6.47;3.70;;;;;;;;;;5035334;28;20695;-71
2022/12/05 13:51:31;;;;;;;5.50;3.50;;;;;;;;;;5034460;28;20201;-71
2022/12/05 13:53:59;;;;;;;7.07;3.77;;;;;;;;;;5014619;28;20189;-72
2022/12/05 13:56:27;;;;;;;5.20;3.60;;;;;;;;;;5032195;28;20178;-70
2022/12/05 13:58:52;;;;;;;5.00;4.47;;;;;;;;;;5017451;28;20166;-71
2022/12/05 14:01:23;;;;;;;5.17;3.20;;;;;;;;;;5032706;28;20709;-71
2022/12/05 14:03:48;;;;;;;4.87;3.83;;;;;;;;;;5034820;28;20177;-71
2022/12/05 14:06:33;;;;;;;7.17;4.07;;;;;;;;;;5034563;28;20170;-71
2022/12/05 14:08:59;;;;;;;6.03;3.70;;;;;;;;;;5034962;28;20189;-71
2022/12/05 14:11:24;;;;;;;4.53;4.07;;;;;;;;;;5033745;28;20206;-71
2022/12/05 14:13:50;;;;;;;5.70;3.63;;;;;;;;;;5033789;28;20178;-71
2022/12/05 14:16:24;;;;;;;6.40;4.37;;;;;;;;;;5034482;28;20206;-72
2022/12/05 14:18:58;;;;;;;5.97;3.77;;;;;;;;;;5029619;28;20165;-72
2022/12/05 14:21:37;;;;;;;5.13;3.47;;;;;;;;;;5015563;28;20765;-71
2022/12/05 14:24:02;;;;;;;7.00;4.97;;;;;;;;;;5035002;28;20636;-71
2022/12/05 14:26:46;;;;;;;14.17;8.50;;;;;;;;;;5033055;28;20177;-71
2022/12/05 14:29:35;;;;;;;7.47;5.17;;;;;;;;;;5033234;28;20178;-71
2022/12/05 14:32:16;;;;;;;6.03;4.63;;;;;;;;;;5034325;28;20601;-71
2022/12/05 14:34:56;;;;;;;5.13;3.93;;;;;;;;;;5034492;28;20209;-71
2022/12/05 14:37:41;;;;;;;5.40;4.10;;;;;;;;;;5032855;28;20548;-71
2022/12/05 14:40:15;;;;;;;6.03;2.93;;;;;;;;;;5033922;28;20707;-71
2022/12/05 14:42:42;;;;;;;4.70;2.80;;;;;;;;;;5033360;28;20170;-71
2022/12/05 14:45:37;;;;;;;3.23;2.47;;;;;;;;;;5035262;28;20178;-72